Terminal Aerodrome Forecast
Issued by NWS

Home | Current Version | Previous Version | Text Only | Print | Product List | Glossary On
Versions: 1 2 3 4 5 6 7 8 9 10 11 12 13
000
FTUS41 KBTV 010533
TAFRUT
TAF
KRUT 010533Z 0106/0206 15008KT P6SM -SHRA SCT040 BKN060
      TEMPO 0107/0111 4SM SHRA BR OVC035
     FM011200 18007KT P6SM VCSH SCT025 OVC040
     FM011800 20008KT P6SM VCSH OVC035
      TEMPO 0118/0121 3SM TSRA BR BKN025CB
     FM012100 21005KT P6SM BKN090
      AMD LTD TO CLD VIS AND WIND=

USA.gov is the U.S. government's official web portal to all federal, state and local government web resources and services.